Aérodrome :
LOGIN :

S'inscrire | Disclaimer

   EN    FR    IT 

 










Légende :    VFR   VFR Marginal   IFR   IFR Intensif   IFR Très Intensif
Visi : 
Plafond : 
>= 8 km
>= 3000ft
5 à 8 km
1000 à 3000 ft
1500m à 5 km
500 à 1000 ft
800 à 1500m
200 à 500 ft
< 800m
< 200 ft
Symboles :   Orages  Brouillard  Fortes neiges  Fortes précipitations  Vent > 20 kt
SIGMETs :   Divers  Orages  Givrage  Turbulence  Onde Orograph.  Cendres Volcan.






- Altitude de l'aérodrome : 23 ft
- Code IATA : XFW


EDHI - Hamburg Finkenwerder

DERNIER METAR :
  • 110350Z AUTO 04009KT 3500 // BKN005/// OVC035/// 12/11 Q1010

METARs EXPIRÉS :
  • 110320Z AUTO 05003KT 330V080 9999 4500 // SCT005/// BKN007/// OVC041/// 12/11 Q1010
  • 110250Z AUTO 07008KT 3600 // BKN006/// OVC040/// 12/11 Q1009
  • 110220Z AUTO 08005KT 4500 // FEW005/// BKN043/// OVC068/// 12/12 Q1010
  • 110150Z AUTO 08007KT 6000 2700 // BKN043/// OVC054/// 12/12 Q1010
  • 110120Z AUTO 08005KT 040V110 7000 // SCT046/// SCT054/// OVC069/// 13/12 Q1010

TAF TAF EDHI
Valide du 11 à 04h jusqu'au 11 à 12h UTC


110300Z 1104/1112 06006KT 9999 BKN030
TEMPO 1104/1110 3000 RA BKN006
BECMG 1110/1112 03012KT
PROB30
TEMPO 1110/1112 4000 -RADZ BKN009



MET'MAP, la Météo Aéronautique d'un coup d'oeil ! - Copyright ORBIFLY Décembre 2007 - Disclaimer

ORBIFLY MET'MAP TEAM :

Programmation & Développement : Alexandra Zaïnal
Sur une idée originale de : Baudouin d'Aumeries
Assistance à la programmation : Marc-Olivier Méhu
Soutien technique & logistique : Manuel Goepfert

Contact : metmap@orbifly.com




SOURCES & CREDITS :

   NOAA